Time,TemperatureF,DewpointF,PressureIn,WindDirection,WindDirectionDegrees,WindSpeedMPH,WindSpeedGustMPH,Humidity,HourlyPrecipIn,Conditions,Clouds,dailyrainin,SoftwareType,DateUTC
2013-04-22 00:08:00,41.9,30.2,30.52,SW,225,2.2,-999.0,63,-99.99,,,0.00,Acu-Link.com,2013-04-22 04:08:00,
2013-04-22 00:23:00,41.4,30.1,30.53,ENE,67,2.2,-999.0,64,-99.99,,,0.00,Acu-Link.com,2013-04-22 04:23:00,
2013-04-22 00:38:00,41.5,30.2,30.53,NNE,22,2.2,-999.0,64,-99.99,,,0.00,Acu-Link.com,2013-04-22 04:38:00,
2013-04-22 00:53:00,41.4,30.1,30.52,WNW,292,2.2,-999.0,64,-99.99,,,0.00,Acu-Link.com,2013-04-22 04:53:00,
2013-04-22 01:08:00,41.2,30.3,30.52,ENE,67,2.7,-999.0,65,-99.99,,,0.00,Acu-Link.com,2013-04-22 05:08:00,
2013-04-22 01:23:00,41.4,30.9,30.51,East,90,1.7,-999.0,66,-99.99,,,0.00,Acu-Link.com,2013-04-22 05:23:00,
2013-04-22 01:39:00,41.7,32.3,30.50,SSE,157,3.2,-999.0,69,-99.99,,,0.00,Acu-Link.com,2013-04-22 05:39:00,
2013-04-22 01:54:00,41.7,32.6,30.49,SSE,157,2.2,-999.0,70,-99.99,,,0.00,Acu-Link.com,2013-04-22 05:54:00,
2013-04-22 02:09:00,41.9,33.2,30.49,South,180,2.7,-999.0,71,-99.99,,,0.00,Acu-Link.com,2013-04-22 06:09:00,
2013-04-22 02:24:00,41.9,34.2,30.49,South,180,2.2,-999.0,74,-99.99,,,0.00,Acu-Link.com,2013-04-22 06:24:00,
2013-04-22 02:39:00,42.3,34.6,30.49,SSE,157,2.7,-999.0,74,-99.99,,,0.00,Acu-Link.com,2013-04-22 06:39:00,
2013-04-22 02:54:00,42.4,35.0,30.49,NW,315,2.2,-999.0,75,-99.99,,,0.00,Acu-Link.com,2013-04-22 06:54:00,
2013-04-22 03:09:00,42.6,35.6,30.49,SSE,157,2.2,-999.0,76,-99.99,,,0.00,Acu-Link.com,2013-04-22 07:09:00,
2013-04-22 03:24:00,43.0,36.6,30.49,South,180,2.2,-999.0,78,-99.99,,,0.00,Acu-Link.com,2013-04-22 07:24:00,
2013-04-22 03:39:00,43.2,36.8,30.49,SE,135,1.7,-999.0,78,-99.99,,,0.00,Acu-Link.com,2013-04-22 07:39:00,
2013-04-22 03:55:00,43.7,37.6,30.49,ESE,112,3.7,-999.0,79,-99.99,,,0.00,Acu-Link.com,2013-04-22 07:55:00,
2013-04-22 04:10:00,44.2,38.1,30.49,ESE,112,5.3,-999.0,79,-99.99,,,0.00,Acu-Link.com,2013-04-22 08:10:00,
2013-04-22 04:25:00,44.6,38.5,30.49,WNW,292,3.2,-999.0,79,-99.99,,,0.00,Acu-Link.com,2013-04-22 08:25:00,
2013-04-22 04:40:00,44.8,38.0,30.49,South,180,4.2,-999.0,77,-99.99,,,0.00,Acu-Link.com,2013-04-22 08:40:00,
2013-04-22 04:55:00,45.0,37.9,30.48,North,0,4.2,-999.0,76,-99.99,,,0.00,Acu-Link.com,2013-04-22 08:55:00,
2013-04-22 05:10:00,44.8,38.0,30.48,North,0,4.2,-999.0,77,-99.99,,,0.00,Acu-Link.com,2013-04-22 09:10:00,
2013-04-22 05:25:00,44.8,38.0,30.48,ENE,67,5.3,-999.0,77,-99.99,,,0.00,Acu-Link.com,2013-04-22 09:25:00,
2013-04-22 05:40:00,45.0,37.9,30.47,SSE,157,4.7,-999.0,76,-99.99,,,0.00,Acu-Link.com,2013-04-22 09:40:00,
2013-04-22 05:55:00,45.5,39.0,30.46,NE,45,4.2,-999.0,78,-99.99,,,0.00,Acu-Link.com,2013-04-22 09:55:00,
2013-04-22 06:11:00,45.1,38.0,30.45,ESE,112,5.3,-999.0,76,-99.99,,,0.00,Acu-Link.com,2013-04-22 10:11:00,
2013-04-22 06:26:00,45.5,38.7,30.44,SE,135,7.3,-999.0,77,-99.99,,,0.00,Acu-Link.com,2013-04-22 10:26:00,
2013-04-22 06:41:00,45.7,38.9,30.43,SE,135,5.3,-999.0,77,-99.99,,,0.00,Acu-Link.com,2013-04-22 10:41:00,
2013-04-22 06:56:00,45.7,38.6,30.44,North,0,6.8,-999.0,76,-99.99,,,0.00,Acu-Link.com,2013-04-22 10:56:00,
2013-04-22 07:11:00,46.2,38.0,30.46,North,0,3.7,-999.0,73,-99.99,,,0.00,Acu-Link.com,2013-04-22 11:11:00,
2013-04-22 07:26:00,46.6,38.8,30.46,ESE,112,2.7,-999.0,74,-99.99,,,0.00,Acu-Link.com,2013-04-22 11:26:00,
2013-04-22 07:41:00,46.6,38.1,30.46,South,180,3.7,-999.0,72,-99.99,,,0.00,Acu-Link.com,2013-04-22 11:41:00,
2013-04-22 07:56:00,46.6,37.7,30.45,North,0,6.8,-999.0,71,-99.99,,,0.00,Acu-Link.com,2013-04-22 11:56:00,
2013-04-22 08:11:00,46.9,38.0,30.45,ENE,67,5.3,-999.0,71,-99.99,,,0.00,Acu-Link.com,2013-04-22 12:11:00,
2013-04-22 08:27:00,47.1,38.2,30.46,ESE,112,4.2,-999.0,71,-99.99,,,0.00,Acu-Link.com,2013-04-22 12:27:00,
2013-04-22 08:42:00,47.7,38.8,30.46,SSE,157,4.2,-999.0,71,-99.99,,,0.00,Acu-Link.com,2013-04-22 12:42:00,
2013-04-22 08:57:00,48.4,39.1,30.45,SE,135,6.3,-999.0,70,-99.99,,,0.00,Acu-Link.com,2013-04-22 12:57:00,
2013-04-22 09:12:00,50.0,39.9,30.45,NNE,22,7.3,-999.0,68,-99.99,,,0.00,Acu-Link.com,2013-04-22 13:12:00,
2013-04-22 09:27:00,51.1,40.5,30.45,North,0,6.3,-999.0,67,-99.99,,,0.00,Acu-Link.com,2013-04-22 13:27:00,
2013-04-22 09:42:00,51.8,41.2,30.45,SE,135,5.3,-999.0,67,-99.99,,,0.00,Acu-Link.com,2013-04-22 13:42:00,
2013-04-22 09:57:00,52.3,41.7,30.46,SSE,157,5.8,-999.0,67,-99.99,,,0.00,Acu-Link.com,2013-04-22 13:57:00,
2013-04-22 10:12:00,52.2,42.0,30.45,South,180,7.3,-999.0,68,-99.99,,,0.00,Acu-Link.com,2013-04-22 14:12:00,
2013-04-22 10:27:00,52.0,41.8,30.46,ESE,112,4.7,-999.0,68,-99.99,,,0.00,Acu-Link.com,2013-04-22 14:27:00,
2013-04-22 10:43:00,51.8,42.0,30.46,SSE,157,5.3,-999.0,69,-99.99,,,0.00,Acu-Link.com,2013-04-22 14:43:00,
2013-04-22 10:58:00,53.2,42.9,30.46,SSE,157,4.7,-999.0,68,-99.99,,,0.00,Acu-Link.com,2013-04-22 14:58:00,
2013-04-22 11:13:00,53.2,42.9,30.46,SW,225,8.3,-999.0,68,-99.99,,,0.00,Acu-Link.com,2013-04-22 15:13:00,
2013-04-22 11:28:00,54.1,43.4,30.46,SE,135,7.3,-999.0,67,-99.99,,,0.00,Acu-Link.com,2013-04-22 15:28:00,
2013-04-22 11:43:00,54.5,44.2,30.45,SSE,157,3.7,-999.0,68,-99.99,,,0.00,Acu-Link.com,2013-04-22 15:43:00,
2013-04-22 11:58:00,52.9,42.6,30.45,ESE,112,5.3,-999.0,68,-99.99,,,0.00,Acu-Link.com,2013-04-22 15:58:00,
2013-04-22 12:13:00,51.8,42.7,30.44,South,180,6.3,-999.0,71,-99.99,,,0.00,Acu-Link.com,2013-04-22 16:13:00,
2013-04-22 12:28:00,54.0,43.3,30.43,SSE,157,4.2,-999.0,67,-99.99,,,0.00,Acu-Link.com,2013-04-22 16:28:00,
2013-04-22 12:43:00,52.9,43.0,30.43,SSE,157,3.7,-999.0,69,-99.99,,,0.00,Acu-Link.com,2013-04-22 16:43:00,
2013-04-22 12:59:00,53.4,43.5,30.43,ESE,112,5.8,-999.0,69,-99.99,,,0.00,Acu-Link.com,2013-04-22 16:59:00,
2013-04-22 13:14:00,54.1,43.4,30.43,SE,135,5.3,-999.0,67,-99.99,,,0.00,Acu-Link.com,2013-04-22 17:14:00,
2013-04-22 13:29:00,51.1,41.3,30.44,South,180,4.7,-999.0,69,-99.99,,,0.00,Acu-Link.com,2013-04-22 17:29:00,
2013-04-22 13:44:00,52.0,42.1,30.43,East,90,5.3,-999.0,69,-99.99,,,0.00,Acu-Link.com,2013-04-22 17:44:00,
2013-04-22 13:59:00,52.5,42.6,30.44,SE,135,6.3,-999.0,69,-99.99,,,0.00,Acu-Link.com,2013-04-22 17:59:00,
2013-04-22 14:14:00,52.2,42.3,30.43,NNE,22,5.8,-999.0,69,-99.99,,,0.00,Acu-Link.com,2013-04-22 18:14:00,
2013-04-22 14:29:00,52.2,42.3,30.41,NNE,22,7.3,-999.0,69,-99.99,,,0.00,Acu-Link.com,2013-04-22 18:29:00,
2013-04-22 14:44:00,52.0,42.5,30.40,SE,135,4.7,-999.0,70,-99.99,,,0.00,Acu-Link.com,2013-04-22 18:44:00,
2013-04-22 14:59:00,53.1,43.2,30.39,SSE,157,4.7,-999.0,69,-99.99,,,0.00,Acu-Link.com,2013-04-22 18:59:00,
2013-04-22 15:15:00,54.3,43.6,30.39,ESE,112,5.8,-999.0,67,-99.99,,,0.00,Acu-Link.com,2013-04-22 19:15:00,
2013-04-22 15:30:00,52.7,42.4,30.39,ESE,112,6.3,-999.0,68,-99.99,,,0.00,Acu-Link.com,2013-04-22 19:30:00,
2013-04-22 15:45:00,54.0,43.7,30.38,NNW,337,6.3,-999.0,68,-99.99,,,0.00,Acu-Link.com,2013-04-22 19:45:00,
2013-04-22 16:00:00,53.6,42.9,30.37,ESE,112,6.8,-999.0,67,-99.99,,,0.00,Acu-Link.com,2013-04-22 20:00:00,
2013-04-22 16:15:00,51.8,42.3,30.38,WNW,292,4.2,-999.0,70,-99.99,,,0.00,Acu-Link.com,2013-04-22 20:15:00,
2013-04-22 16:30:00,51.6,42.5,30.38,SW,225,3.7,-999.0,71,-99.99,,,0.00,Acu-Link.com,2013-04-22 20:30:00,
2013-04-22 16:45:00,50.7,42.7,30.37,East,90,4.7,-999.0,74,-99.99,,,0.00,Acu-Link.com,2013-04-22 20:45:00,
2013-04-22 17:00:00,50.7,42.0,30.37,SE,135,4.2,-999.0,72,-99.99,,,0.00,Acu-Link.com,2013-04-22 21:00:00,
2013-04-22 17:15:00,50.0,41.3,30.37,ENE,67,6.8,-999.0,72,-99.99,,,0.00,Acu-Link.com,2013-04-22 21:15:00,
2013-04-22 17:31:00,50.2,41.9,30.37,SSE,157,5.8,-999.0,73,-99.99,,,0.00,Acu-Link.com,2013-04-22 21:31:00,
2013-04-22 17:46:00,50.0,41.7,30.35,WNW,292,4.2,-999.0,73,-99.99,,,0.00,Acu-Link.com,2013-04-22 21:46:00,
2013-04-22 18:01:00,49.8,42.2,30.35,North,0,6.8,-999.0,75,-99.99,,,0.00,Acu-Link.com,2013-04-22 22:01:00,
2013-04-22 18:16:00,49.8,42.2,30.35,SSE,157,5.3,-999.0,75,-99.99,,,0.00,Acu-Link.com,2013-04-22 22:16:00,
2013-04-22 18:31:00,49.3,42.1,30.35,NNE,22,4.2,-999.0,76,-99.99,,,0.00,Acu-Link.com,2013-04-22 22:31:00,
2013-04-22 18:46:00,48.7,42.2,30.35,SSE,157,6.3,-999.0,78,-99.99,,,0.00,Acu-Link.com,2013-04-22 22:46:00,
2013-04-22 19:01:00,48.4,41.9,30.35,NNE,22,9.4,-999.0,78,-99.99,,,0.00,Acu-Link.com,2013-04-22 23:01:00,
2013-04-22 19:16:00,48.2,42.0,30.35,NE,45,3.7,-999.0,79,-99.99,,,0.00,Acu-Link.com,2013-04-22 23:16:00,
2013-04-22 19:31:00,48.2,42.0,30.35,SSE,157,4.2,-999.0,79,-99.99,,,0.00,Acu-Link.com,2013-04-22 23:31:00,
2013-04-22 19:47:00,47.8,41.9,30.35,SE,135,4.2,-999.0,80,-99.99,,,0.00,Acu-Link.com,2013-04-22 23:47:00,
2013-04-22 20:02:00,47.8,42.3,30.35,ESE,112,8.3,-999.0,81,-99.99,,,0.00,Acu-Link.com,2013-04-23 00:02:00,
2013-04-22 20:17:00,47.8,42.6,30.34,East,90,3.7,-999.0,82,-99.99,,,0.00,Acu-Link.com,2013-04-23 00:17:00,
2013-04-22 20:32:00,47.8,42.6,30.33,SE,135,6.3,-999.0,82,-99.99,,,0.00,Acu-Link.com,2013-04-23 00:32:00,
2013-04-22 20:47:00,47.8,42.9,30.34,WSW,247,5.8,-999.0,83,-99.99,,,0.00,Acu-Link.com,2013-04-23 00:47:00,
2013-04-22 21:02:00,47.8,42.9,30.34,East,90,3.7,-999.0,83,-99.99,,,0.00,Acu-Link.com,2013-04-23 01:02:00,
2013-04-22 21:17:00,48.0,43.4,30.34,SW,225,3.2,-999.0,84,-99.99,,,0.00,Acu-Link.com,2013-04-23 01:17:00,
2013-04-22 21:32:00,48.0,43.4,30.34,ESE,112,3.2,-999.0,84,-99.99,,,0.00,Acu-Link.com,2013-04-23 01:32:00,
2013-04-22 21:47:00,48.0,43.4,30.34,SE,135,3.2,-999.0,84,-99.99,,,0.00,Acu-Link.com,2013-04-23 01:47:00,
2013-04-22 22:03:00,48.2,43.9,30.34,WNW,292,3.7,-999.0,85,-99.99,,,0.00,Acu-Link.com,2013-04-23 02:03:00,
2013-04-22 22:18:00,48.2,43.9,30.33,NW,315,5.3,-999.0,85,-99.99,,,0.00,Acu-Link.com,2013-04-23 02:18:00,
2013-04-22 22:33:00,48.2,43.9,30.32,East,90,4.7,-999.0,85,-99.99,,,0.00,Acu-Link.com,2013-04-23 02:33:00,
2013-04-22 22:48:00,48.2,43.9,30.33,East,90,4.2,-999.0,85,-99.99,,,0.00,Acu-Link.com,2013-04-23 02:48:00,
2013-04-22 23:03:00,48.2,43.9,30.32,West,270,4.2,-999.0,85,-99.99,,,0.00,Acu-Link.com,2013-04-23 03:03:00,
2013-04-22 23:18:00,48.2,43.9,30.32,NE,45,7.8,-999.0,85,-99.99,,,0.00,Acu-Link.com,2013-04-23 03:18:00,
2013-04-22 23:33:00,48.2,43.9,30.31,ESE,112,3.7,-999.0,85,-99.99,,,0.00,Acu-Link.com,2013-04-23 03:33:00,
2013-04-22 23:48:00,48.0,43.7,30.32,NNW,337,3.2,-999.0,85,-99.99,,,0.00,Acu-Link.com,2013-04-23 03:48:00,